Terminal Aerodrome Forecast
Issued by NWS

Home | Current Version | Previous Version | Text Only | Print | Product List | Glossary Off
Versions: 1 2 3 4 5 6 7 8 9 10 11 12 13 14 15 16

000
FTUS43 KBIS 172300
TAFJMS
TAF
KJMS 172327Z 1800/1824 35015KT P6SM OVC018
     FM180300 01007KT P6SM OVC020
     FM181800 17012KT P6SM SCT025=

USA.gov is the U.S. government's official web portal to all federal, state and local government web resources and services.